createdAt,value
2023-04-03T00:01:21.680Z,4.70
2023-04-03T00:03:52.713Z,4.59
2023-04-03T00:06:21.637Z,4.57
2023-04-03T00:08:50.347Z,4.62
2023-04-03T00:11:19.833Z,4.61
2023-04-03T00:13:48.486Z,4.58
2023-04-03T00:16:17.210Z,4.55
2023-04-03T00:18:45.854Z,4.53
2023-04-03T00:21:16.453Z,4.54
2023-04-03T00:23:45.032Z,4.69
2023-04-03T00:26:13.850Z,4.49
2023-04-03T00:28:42.493Z,4.33
2023-04-03T00:31:11.175Z,4.29
2023-04-03T00:33:39.913Z,4.27
2023-04-03T00:36:09.876Z,4.36
2023-04-03T00:38:40.514Z,4.38
2023-04-03T00:41:09.763Z,4.27
2023-04-03T00:43:38.396Z,4.32
2023-04-03T00:46:07.130Z,4.31
2023-04-03T00:48:38.511Z,4.26
2023-04-03T00:51:08.402Z,4.28
2023-04-03T00:53:41.624Z,4.30
2023-04-03T00:56:12.686Z,4.32
2023-04-03T00:58:44.584Z,4.34
2023-04-03T01:01:16.530Z,4.37
2023-04-03T01:03:45.212Z,4.38
2023-04-03T01:06:14.206Z,4.41
2023-04-03T01:08:44.192Z,4.44
2023-04-03T01:11:12.817Z,4.39
2023-04-03T01:13:41.449Z,4.41
2023-04-03T01:16:10.553Z,4.44
2023-04-03T01:18:41.480Z,4.34
2023-04-03T01:21:32.475Z,4.36
2023-04-03T01:24:23.842Z,4.31
2023-04-03T01:26:52.406Z,4.36
2023-04-03T01:29:21.327Z,4.39
2023-04-03T01:31:56.382Z,4.36
2023-04-03T01:34:26.225Z,4.24
2023-04-03T01:36:55.181Z,4.26
2023-04-03T01:39:23.981Z,4.35
2023-04-03T01:41:53.029Z,4.30
2023-04-03T01:44:22.326Z,4.29
2023-04-03T01:46:50.901Z,4.13
2023-04-03T01:49:20.876Z,4.14
2023-04-03T01:51:49.442Z,4.16
2023-04-03T01:54:18.042Z,4.20
2023-04-03T01:56:46.692Z,4.23
2023-04-03T01:59:17.856Z,4.23
2023-04-03T02:01:46.781Z,4.21
2023-04-03T02:04:15.559Z,4.27
2023-04-03T02:06:45.687Z,4.22
2023-04-03T02:09:14.461Z,4.25
2023-04-03T02:11:43.075Z,4.29
2023-04-03T02:14:11.690Z,4.31
2023-04-03T02:16:40.424Z,4.22
2023-04-03T02:19:09.062Z,4.19
2023-04-03T02:21:37.721Z,4.13
2023-04-03T02:24:08.152Z,4.17
2023-04-03T02:26:37.000Z,4.20
2023-04-03T02:29:05.908Z,4.18
2023-04-03T02:31:34.513Z,4.27
2023-04-03T02:34:03.190Z,4.30
2023-04-03T02:36:32.986Z,4.28
2023-04-03T02:39:01.662Z,4.23
2023-04-03T02:41:35.790Z,4.28
2023-04-03T02:44:05.621Z,4.24
2023-04-03T02:46:34.818Z,4.18
2023-04-03T02:49:04.035Z,4.21
2023-04-03T02:51:32.710Z,4.16
2023-04-03T02:54:01.627Z,4.23
2023-04-03T02:56:31.556Z,4.21
2023-04-03T02:59:00.197Z,4.30
2023-04-03T03:01:32.238Z,4.40
2023-04-03T03:04:01.688Z,4.28
2023-04-03T03:06:30.369Z,4.32
2023-04-03T03:08:59.055Z,4.31
2023-04-03T03:11:27.695Z,4.31
2023-04-03T03:13:57.939Z,4.31
2023-04-03T03:16:26.651Z,4.36
2023-04-03T03:18:56.685Z,4.39
2023-04-03T03:21:27.034Z,4.41
2023-04-03T03:23:55.789Z,4.47
2023-04-03T03:26:24.787Z,4.39
2023-04-03T03:28:53.466Z,4.28
2023-04-03T03:31:23.423Z,4.23
2023-04-03T03:33:51.977Z,4.11
2023-04-03T03:36:20.631Z,4.12
2023-04-03T03:38:49.281Z,4.20
2023-04-03T03:41:17.881Z,4.31
2023-04-03T03:43:46.655Z,4.37
2023-04-03T03:46:15.371Z,4.41
2023-04-03T03:48:45.365Z,4.29
2023-04-03T03:51:13.934Z,4.29
2023-04-03T03:53:42.547Z,4.37
2023-04-03T03:56:11.432Z,4.32
2023-04-03T03:58:40.017Z,4.25
2023-04-03T04:01:08.968Z,4.24
2023-04-03T04:03:38.099Z,4.28
2023-04-03T04:06:08.386Z,4.30
2023-04-03T04:08:36.967Z,4.31
2023-04-03T04:11:05.688Z,4.29
2023-04-03T04:13:34.282Z,4.23
2023-04-03T04:16:03.300Z,4.25
2023-04-03T04:18:31.907Z,4.22
2023-04-03T04:21:00.660Z,4.29
2023-04-03T04:23:30.738Z,4.32
2023-04-03T04:25:59.874Z,4.16
2023-04-03T04:28:28.589Z,4.21
2023-04-03T04:30:57.236Z,4.25
2023-04-03T04:33:26.479Z,4.10
2023-04-03T04:35:55.169Z,4.17
2023-04-03T04:38:23.867Z,4.19
2023-04-03T04:40:53.793Z,4.19
2023-04-03T04:43:22.410Z,4.20
2023-04-03T04:45:51.042Z,4.16
2023-04-03T04:48:19.708Z,4.22
2023-04-03T04:50:48.267Z,4.32
2023-04-03T04:53:16.854Z,4.27
2023-04-03T04:55:45.408Z,4.23
2023-04-03T04:58:15.499Z,4.25
2023-04-03T05:00:44.118Z,4.28
2023-04-03T05:03:12.925Z,4.27
2023-04-03T05:05:41.538Z,4.50
2023-04-03T05:08:10.261Z,4.45
2023-04-03T05:10:38.912Z,4.44
2023-04-03T05:13:07.544Z,4.39
2023-04-03T05:15:37.849Z,4.34
2023-04-03T05:18:06.876Z,4.36
2023-04-03T05:20:35.726Z,4.37
2023-04-03T05:23:04.338Z,4.42
2023-04-03T05:25:33.068Z,4.40
2023-04-03T05:28:01.714Z,4.42
2023-04-03T05:30:30.361Z,4.40
2023-04-03T05:33:00.512Z,4.34
2023-04-03T05:35:29.219Z,4.35
2023-04-03T05:37:57.841Z,4.38
2023-04-03T05:40:26.625Z,4.47
2023-04-03T05:42:55.484Z,4.49
2023-04-03T05:45:24.116Z,4.47
2023-04-03T05:47:52.916Z,4.48
2023-04-03T05:50:22.901Z,4.43
2023-04-03T05:52:52.161Z,4.52
2023-04-03T05:55:21.027Z,4.43
2023-04-03T05:57:49.702Z,4.40
2023-04-03T06:00:18.984Z,4.37
2023-04-03T06:02:47.723Z,4.39
2023-04-03T06:05:16.527Z,4.47
2023-04-03T06:07:46.614Z,4.41
2023-04-03T06:10:15.280Z,4.49
2023-04-03T06:12:44.070Z,4.54
2023-04-03T06:15:12.786Z,4.61
2023-04-03T06:17:41.406Z,4.59
2023-04-03T06:20:11.394Z,4.95
2023-04-03T06:22:40.019Z,4.95
2023-04-03T06:25:11.844Z,5.03
2023-04-03T06:27:40.671Z,4.98
2023-04-03T06:30:10.553Z,4.97
2023-04-03T06:32:39.334Z,4.87
2023-04-03T06:35:09.477Z,4.67
2023-04-03T06:37:38.123Z,4.74
2023-04-03T06:40:08.284Z,4.79
2023-04-03T06:42:38.266Z,4.39
2023-04-03T06:45:08.739Z,4.49
2023-04-03T06:47:37.430Z,4.54
2023-04-03T06:50:07.522Z,4.62
2023-04-03T06:52:36.133Z,4.71
2023-04-03T06:55:05.803Z,4.71
2023-04-03T06:57:34.552Z,4.78
2023-04-03T07:00:07.035Z,4.66
2023-04-03T07:02:35.734Z,4.73
2023-04-03T07:05:04.763Z,4.88
2023-04-03T07:07:34.986Z,4.91
2023-04-03T07:10:03.822Z,4.90
2023-04-03T07:12:32.424Z,4.96
2023-04-03T07:15:01.231Z,5.09
2023-04-03T07:17:31.296Z,5.11
2023-04-03T07:19:59.990Z,5.08
2023-04-03T07:22:29.112Z,4.82
2023-04-03T07:24:57.732Z,4.98
2023-04-03T07:27:26.588Z,5.08
2023-04-03T07:29:57.026Z,5.08
2023-04-03T07:32:25.947Z,5.16
2023-04-03T07:34:56.098Z,5.21
2023-04-03T07:37:24.685Z,5.39
2023-04-03T07:39:53.519Z,5.48
2023-04-03T07:42:22.386Z,5.58
2023-04-03T07:44:51.005Z,5.50
2023-04-03T07:47:19.692Z,5.57
2023-04-03T07:49:49.180Z,5.68
2023-04-03T07:52:19.171Z,5.76
2023-04-03T07:54:47.817Z,5.57
2023-04-03T07:57:16.524Z,5.57
2023-04-03T07:59:45.399Z,5.49
2023-04-03T08:02:14.669Z,5.48
2023-04-03T08:04:43.361Z,5.40
2023-04-03T08:07:12.036Z,5.58
2023-04-03T08:09:42.332Z,5.71
2023-04-03T08:12:12.385Z,5.73
2023-04-03T08:14:41.105Z,5.67
2023-04-03T08:17:12.560Z,5.64
2023-04-03T08:19:41.766Z,5.76
2023-04-03T08:22:10.453Z,5.64
2023-04-03T08:24:41.107Z,5.75
2023-04-03T08:27:16.079Z,5.83
2023-04-03T08:29:44.752Z,5.90
2023-04-03T08:32:13.400Z,5.84
2023-04-03T08:34:42.235Z,5.94
2023-04-03T08:37:10.965Z,6.09
2023-04-03T08:39:39.550Z,6.26
2023-04-03T08:42:19.853Z,6.22
2023-04-03T08:44:50.290Z,6.55
2023-04-03T08:47:25.281Z,6.68
2023-04-03T08:49:55.694Z,6.92
2023-04-03T08:52:29.673Z,6.82
2023-04-03T08:55:00.782Z,7.09
2023-04-03T08:57:34.317Z,7.00
2023-04-03T09:00:18.731Z,7.04
2023-04-03T09:02:49.172Z,7.23
2023-04-03T09:05:20.318Z,7.25
2023-04-03T09:07:53.283Z,7.17
2023-04-03T09:10:28.674Z,7.36
2023-04-03T09:13:02.336Z,7.20
2023-04-03T09:15:38.296Z,6.93
2023-04-03T09:18:14.909Z,6.87
2023-04-03T09:20:47.800Z,6.79
2023-04-03T09:23:23.925Z,6.76
2023-04-03T09:25:55.695Z,6.64
2023-04-03T09:28:26.687Z,6.50
2023-04-03T09:30:56.292Z,6.71
2023-04-03T09:33:25.027Z,6.72
2023-04-03T09:35:53.719Z,6.68
2023-04-03T09:38:23.913Z,6.68
2023-04-03T09:40:53.717Z,6.72
2023-04-03T09:43:27.010Z,6.78
2023-04-03T09:45:56.224Z,6.57
2023-04-03T09:48:26.297Z,6.53
2023-04-03T09:51:00.519Z,6.62
2023-04-03T09:53:37.820Z,6.61
2023-04-03T09:56:22.651Z,6.70
2023-04-03T09:58:55.036Z,6.73
2023-04-03T10:01:28.781Z,6.72
2023-04-03T10:04:12.784Z,6.60
2023-04-03T10:06:44.480Z,6.56
2023-04-03T10:09:22.084Z,6.38
2023-04-03T10:12:02.313Z,6.64
2023-04-03T10:14:32.516Z,6.67
2023-04-03T10:17:05.652Z,6.53
2023-04-03T10:19:42.394Z,6.37
2023-04-03T10:22:18.707Z,6.45
2023-04-03T10:24:54.750Z,6.32
2023-04-03T10:27:29.161Z,6.04
2023-04-03T10:30:04.526Z,6.09
2023-04-03T10:32:47.118Z,6.15
2023-04-03T10:35:22.405Z,6.17
2023-04-03T10:38:00.507Z,6.01
2023-04-03T10:40:33.948Z,6.07
2023-04-03T10:43:08.148Z,5.98
2023-04-03T10:45:52.550Z,6.18
2023-04-03T10:48:31.966Z,6.22
2023-04-03T10:51:07.238Z,6.31
2023-04-03T10:53:41.550Z,6.20
2023-04-03T10:56:14.550Z,6.29
2023-04-03T10:58:45.881Z,6.39
2023-04-03T11:01:19.709Z,6.47
2023-04-03T11:03:50.505Z,6.57
2023-04-03T11:06:22.244Z,6.69
2023-04-03T11:08:56.060Z,6.52
2023-04-03T11:11:28.761Z,6.61
2023-04-03T11:14:00.434Z,6.61
2023-04-03T11:16:37.859Z,6.57
2023-04-03T11:19:22.424Z,6.35
2023-04-03T11:21:57.278Z,6.42
2023-04-03T11:24:27.974Z,6.27
2023-04-03T11:26:57.835Z,6.21
2023-04-03T11:32:25.719Z,6.26
2023-04-03T11:34:59.604Z,6.38
2023-04-03T11:37:33.433Z,6.52
2023-04-03T11:40:04.984Z,6.67
2023-04-03T11:42:36.713Z,6.69
2023-04-03T11:45:30.866Z,6.49
2023-04-03T11:48:12.966Z,6.14
2023-04-03T11:50:51.428Z,6.21
2023-04-03T11:53:35.341Z,6.29
2023-04-03T11:56:23.133Z,6.24
2023-04-03T11:59:23.917Z,6.41
2023-04-03T12:01:53.685Z,6.17
2023-04-03T12:04:25.702Z,6.24
2023-04-03T12:07:18.655Z,6.33
2023-04-03T12:10:31.157Z,6.52
2023-04-03T12:13:03.389Z,6.61
2023-04-03T12:15:52.296Z,6.63
2023-04-03T12:19:08.562Z,6.63
2023-04-03T12:22:21.918Z,6.88
2023-04-03T12:24:53.214Z,7.06
2023-04-03T12:27:35.684Z,7.17
2023-04-03T12:30:23.700Z,7.24
2023-04-03T12:33:16.254Z,7.17
2023-04-03T12:35:50.516Z,7.38
2023-04-03T12:38:39.794Z,7.44
2023-04-03T12:41:23.089Z,7.39
2023-04-03T12:44:03.162Z,7.52
2023-04-03T12:46:39.534Z,7.59
2023-04-03T12:49:23.130Z,7.59
2023-04-03T12:51:51.926Z,7.72
2023-04-03T12:54:22.304Z,7.74
2023-04-03T12:56:52.519Z,7.70
2023-04-03T12:59:24.039Z,7.51
2023-04-03T13:01:56.630Z,7.29
2023-04-03T13:04:25.616Z,7.53
2023-04-03T13:06:54.569Z,7.51
2023-04-03T13:09:26.220Z,7.51
2023-04-03T13:11:59.911Z,7.68
2023-04-03T13:14:29.857Z,7.55
2023-04-03T13:16:59.942Z,7.49
2023-04-03T13:19:30.132Z,7.39
2023-04-03T13:22:02.058Z,7.31
2023-04-03T13:24:31.535Z,7.28
2023-04-03T13:27:01.935Z,7.55
2023-04-03T13:29:33.041Z,7.51
2023-04-03T13:32:02.939Z,7.43
2023-04-03T13:34:38.524Z,7.29
2023-04-03T13:37:09.032Z,7.20
2023-04-03T13:39:40.019Z,7.18
2023-04-03T13:42:22.301Z,7.41
2023-04-03T13:44:51.472Z,7.58
2023-04-03T13:47:22.465Z,7.67
2023-04-03T13:50:04.434Z,7.65
2023-04-03T13:52:36.831Z,7.52
2023-04-03T13:55:25.691Z,7.62
2023-04-03T13:57:59.244Z,7.48
2023-04-03T14:00:35.958Z,7.41
2023-04-03T14:03:04.872Z,7.29
2023-04-03T14:05:33.607Z,7.38
2023-04-03T14:08:03.041Z,7.57
2023-04-03T14:10:32.038Z,7.46
2023-04-03T14:13:02.285Z,7.45
2023-04-03T14:15:32.939Z,7.48
2023-04-03T14:18:03.847Z,7.45
2023-04-03T14:20:33.797Z,7.56
2023-04-03T14:23:02.498Z,7.63
2023-04-03T14:25:31.561Z,7.57
2023-04-03T14:28:01.972Z,7.84
2023-04-03T14:30:33.929Z,8.03
2023-04-03T14:33:02.788Z,8.19
2023-04-03T14:35:31.701Z,8.13
2023-04-03T14:38:00.511Z,8.22
2023-04-03T14:40:29.887Z,8.26
2023-04-03T14:42:59.230Z,8.10
2023-04-03T14:45:29.286Z,7.90
2023-04-03T14:47:58.265Z,7.89
2023-04-03T14:50:28.624Z,7.75
2023-04-03T14:52:59.791Z,7.65
2023-04-03T14:55:28.672Z,7.70
2023-04-03T14:57:57.469Z,7.69
2023-04-03T15:00:26.366Z,7.81
2023-04-03T15:02:56.508Z,7.51
2023-04-03T15:05:25.137Z,7.55
2023-04-03T15:07:55.976Z,7.57
2023-04-03T15:10:26.904Z,7.63
2023-04-03T15:12:56.538Z,7.60
2023-04-03T15:15:26.126Z,7.63
2023-04-03T15:17:58.789Z,7.52
2023-04-03T15:20:31.388Z,7.41
2023-04-03T15:23:01.694Z,7.30
2023-04-03T15:25:30.688Z,7.26
2023-04-03T15:27:59.636Z,7.26
2023-04-03T15:30:28.306Z,7.35
2023-04-03T15:32:58.421Z,7.40
2023-04-03T15:35:27.134Z,7.45
2023-04-03T15:37:55.762Z,7.38
2023-04-03T15:40:24.405Z,7.35
2023-04-03T15:42:54.403Z,7.13
2023-04-03T15:45:23.335Z,7.25
2023-04-03T15:47:52.189Z,7.25
2023-04-03T15:50:23.843Z,7.33
2023-04-03T15:52:55.391Z,7.40
2023-04-03T15:55:24.921Z,7.54
2023-04-03T15:57:53.690Z,7.52
2023-04-03T16:00:22.820Z,7.47
2023-04-03T16:02:53.902Z,7.33
2023-04-03T16:05:24.090Z,7.14
2023-04-03T16:07:53.245Z,6.93
2023-04-03T16:10:22.044Z,6.81
2023-04-03T16:12:50.819Z,6.79
2023-04-03T16:15:19.754Z,6.70
2023-04-03T16:17:49.130Z,6.56
2023-04-03T16:20:19.648Z,6.69
2023-04-03T16:22:50.026Z,6.78
2023-04-03T16:25:19.576Z,6.85
2023-04-03T16:27:48.178Z,6.91
2023-04-03T16:30:16.776Z,6.87
2023-04-03T16:32:45.490Z,6.99
2023-04-03T16:35:14.250Z,7.07
2023-04-03T16:37:42.894Z,7.06
2023-04-03T16:40:13.774Z,7.02
2023-04-03T16:42:42.513Z,6.88
2023-04-03T16:45:11.845Z,6.96
2023-04-03T16:47:40.799Z,6.85
2023-04-03T16:50:10.468Z,6.91
2023-04-03T16:52:39.150Z,6.88
2023-04-03T16:55:08.747Z,6.99
2023-04-03T16:57:38.769Z,6.99
2023-04-03T17:00:09.236Z,6.80
2023-04-03T17:02:37.953Z,6.83
2023-04-03T17:05:07.338Z,6.84
2023-04-03T17:07:36.237Z,6.87
2023-04-03T17:10:05.546Z,6.82
2023-04-03T17:12:34.208Z,6.65
2023-04-03T17:15:04.438Z,6.69
2023-04-03T17:17:33.134Z,6.69
2023-04-03T17:20:01.892Z,6.68
2023-04-03T17:22:30.964Z,6.59
2023-04-03T17:24:59.774Z,6.48
2023-04-03T17:27:28.555Z,6.53
2023-04-03T17:29:57.273Z,6.60
2023-04-03T17:32:27.370Z,6.65
2023-04-03T17:34:56.355Z,6.65
2023-04-03T17:37:24.973Z,6.69
2023-04-03T17:39:53.565Z,6.66
2023-04-03T17:42:22.174Z,6.61
2023-04-03T17:44:50.830Z,6.55
2023-04-03T17:47:19.482Z,6.57
2023-04-03T17:49:49.460Z,6.54
2023-04-03T17:52:18.170Z,6.52
2023-04-03T17:54:46.785Z,6.49
2023-04-03T17:57:15.497Z,6.47
2023-04-03T17:59:44.142Z,6.39
2023-04-03T18:02:12.805Z,6.35
2023-04-03T18:04:41.422Z,6.35
2023-04-03T18:07:11.962Z,6.34
2023-04-03T18:09:42.038Z,6.24
2023-04-03T18:12:11.025Z,6.26
2023-04-03T18:14:39.837Z,6.22
2023-04-03T18:17:09.087Z,6.24
2023-04-03T18:19:38.039Z,6.27
2023-04-03T18:22:09.951Z,6.19
2023-04-03T18:24:40.186Z,6.16
2023-04-03T18:27:13.146Z,6.06
2023-04-03T18:29:43.696Z,6.09
2023-04-03T18:32:15.048Z,6.13
2023-04-03T18:34:44.095Z,6.06
2023-04-03T18:37:12.755Z,6.07
2023-04-03T18:39:42.775Z,6.06
2023-04-03T18:42:15.144Z,5.95
2023-04-03T18:44:44.785Z,5.90
2023-04-03T18:47:13.683Z,5.99
2023-04-03T18:49:42.908Z,5.81
2023-04-03T18:52:12.126Z,5.82
2023-04-03T18:54:42.839Z,5.80
2023-04-03T18:57:11.505Z,5.76
2023-04-03T18:59:40.145Z,5.68
2023-04-03T19:02:09.813Z,5.72
2023-04-03T19:04:38.574Z,5.74
2023-04-03T19:07:07.285Z,5.66
2023-04-03T19:09:38.448Z,5.65
2023-04-03T19:12:08.979Z,5.68
2023-04-03T19:14:37.657Z,5.61
2023-04-03T19:17:08.077Z,5.57
2023-04-03T19:19:36.837Z,5.61
2023-04-03T19:22:07.643Z,5.62
2023-04-03T19:24:36.563Z,5.60
2023-04-03T19:27:05.515Z,5.59
2023-04-03T19:29:35.764Z,5.61
2023-04-03T19:32:04.486Z,5.60
2023-04-03T19:34:33.215Z,5.56
2023-04-03T19:37:02.509Z,5.49
2023-04-03T19:39:35.190Z,5.44
2023-04-03T19:42:04.774Z,5.45
2023-04-03T19:44:35.828Z,5.42
2023-04-03T19:47:05.242Z,5.43
2023-04-03T19:49:33.921Z,5.32
2023-04-03T19:52:02.714Z,5.35
2023-04-03T19:54:31.468Z,5.39
2023-04-03T19:57:00.177Z,5.46
2023-04-03T19:59:29.066Z,5.27
2023-04-03T20:01:59.801Z,5.03
2023-04-03T20:04:28.573Z,5.10
2023-04-03T20:06:57.617Z,5.10
2023-04-03T20:09:27.221Z,5.08
2023-04-03T20:11:56.605Z,5.05
2023-04-03T20:14:25.217Z,5.02
2023-04-03T20:16:54.045Z,5.03
2023-04-03T20:19:27.016Z,4.88
2023-04-03T20:21:56.006Z,4.91
2023-04-03T20:24:24.649Z,4.62
2023-04-03T20:26:53.322Z,4.66
2023-04-03T20:29:21.938Z,4.62
2023-04-03T20:31:50.947Z,4.60
2023-04-03T20:34:20.141Z,4.45
2023-04-03T20:36:50.449Z,4.45
2023-04-03T20:39:23.901Z,4.43
2023-04-03T20:41:52.816Z,4.36
2023-04-03T20:44:21.829Z,4.37
2023-04-03T20:46:53.274Z,4.45
2023-04-03T20:49:22.899Z,4.37
2023-04-03T20:51:53.573Z,4.37
2023-04-03T20:54:22.495Z,4.38
2023-04-03T20:56:51.369Z,4.27
2023-04-03T20:59:20.580Z,4.21
2023-04-03T21:01:50.034Z,4.25
2023-04-03T21:04:24.746Z,4.21
2023-04-03T21:07:31.045Z,4.12
2023-04-03T21:10:37.399Z,3.98
2023-04-03T21:13:43.356Z,3.82
2023-04-03T21:16:12.037Z,3.73
2023-04-03T21:19:03.699Z,3.76
2023-04-03T21:21:36.330Z,3.75
2023-04-03T21:24:06.748Z,3.70
2023-04-03T21:26:35.984Z,3.68
2023-04-03T21:29:04.862Z,3.68
2023-04-03T21:31:59.388Z,3.70
2023-04-03T21:34:30.732Z,3.54
2023-04-03T21:37:03.082Z,3.48
2023-04-03T21:39:32.152Z,3.48
2023-04-03T21:42:01.743Z,3.43
2023-04-03T21:44:30.827Z,3.48
2023-04-03T21:46:59.814Z,3.40
2023-04-03T21:49:29.826Z,3.34
2023-04-03T21:51:58.525Z,3.22
2023-04-03T21:54:27.762Z,3.18
2023-04-03T21:56:56.447Z,3.07
2023-04-03T21:59:25.498Z,3.07
2023-04-03T22:01:54.347Z,3.04
2023-04-03T22:04:23.120Z,3.09
2023-04-03T22:06:53.394Z,3.01
2023-04-03T22:09:22.162Z,3.15
2023-04-03T22:11:51.486Z,3.02
2023-04-03T22:14:20.259Z,3.02
2023-04-03T22:16:48.971Z,2.82
2023-04-03T22:19:17.681Z,2.73
2023-04-03T22:21:46.315Z,2.85
2023-04-03T22:24:18.134Z,2.87
2023-04-03T22:26:49.431Z,2.75
2023-04-03T22:29:18.052Z,2.67
2023-04-03T22:31:46.716Z,2.57
2023-04-03T22:34:16.751Z,2.63
2023-04-03T22:36:45.350Z,2.71
2023-04-03T22:39:15.254Z,2.74
2023-04-03T22:41:45.587Z,2.74
2023-04-03T22:44:14.394Z,2.73
2023-04-03T22:46:43.048Z,2.58
2023-04-03T22:49:12.218Z,2.54
2023-04-03T22:51:40.948Z,2.57
2023-04-03T22:54:09.575Z,2.65
2023-04-03T22:56:38.240Z,2.49
2023-04-03T22:59:08.405Z,2.53
2023-04-03T23:01:39.378Z,2.40
2023-04-03T23:04:08.279Z,2.31
2023-04-03T23:06:36.937Z,2.27
2023-04-03T23:09:05.622Z,2.24
2023-04-03T23:11:34.278Z,2.25
2023-04-03T23:14:03.093Z,2.16
2023-04-03T23:16:33.213Z,2.17
2023-04-03T23:19:02.031Z,2.20
2023-04-03T23:21:30.677Z,2.10
2023-04-03T23:23:59.370Z,2.15
2023-04-03T23:26:28.000Z,2.17
2023-04-03T23:28:56.804Z,2.12
2023-04-03T23:31:25.888Z,2.04
2023-04-03T23:33:56.312Z,1.98
2023-04-03T23:36:24.904Z,2.02
2023-04-03T23:38:56.978Z,2.16
2023-04-03T23:41:25.824Z,2.04
2023-04-03T23:43:54.521Z,1.94
2023-04-03T23:46:23.167Z,1.91
2023-04-03T23:48:51.871Z,1.83
2023-04-03T23:51:21.878Z,1.86
2023-04-03T23:53:50.656Z,1.99
2023-04-03T23:56:19.337Z,1.94
2023-04-03T23:58:48.141Z,1.89
